sensor_id;sensor_type;location;lat;lon;timestamp;temperature;humidity
32147;DHT22;32190;49.112;8.598;2024-02-04T00:04:42;12.30;63.40
32147;DHT22;32190;49.112;8.598;2024-02-04T00:10:32;12.30;63.50
32147;DHT22;32190;49.112;8.598;2024-02-04T00:16:27;12.20;63.40
32147;DHT22;32190;49.112;8.598;2024-02-04T00:22:17;12.20;63.50
32147;DHT22;32190;49.112;8.598;2024-02-04T00:28:10;12.20;63.50
32147;DHT22;32190;49.112;8.598;2024-02-04T00:34:02;12.10;63.60
32147;DHT22;32190;49.112;8.598;2024-02-04T00:39:56;12.20;63.60
32147;DHT22;32190;49.112;8.598;2024-02-04T00:45:46;12.10;63.60
32147;DHT22;32190;49.112;8.598;2024-02-04T00:51:37;12.10;63.60
32147;DHT22;32190;49.112;8.598;2024-02-04T00:57:27;12.10;63.60
32147;DHT22;32190;49.112;8.598;2024-02-04T01:03:18;12.20;63.60
32147;DHT22;32190;49.112;8.598;2024-02-04T01:09:09;12.10;63.50
32147;DHT22;32190;49.112;8.598;2024-02-04T01:14:59;12.10;63.50
32147;DHT22;32190;49.112;8.598;2024-02-04T01:20:50;12.10;63.50
32147;DHT22;32190;49.112;8.598;2024-02-04T01:26:41;12.10;63.40
32147;DHT22;32190;49.112;8.598;2024-02-04T01:32:31;12.10;63.40
32147;DHT22;32190;49.112;8.598;2024-02-04T01:38:22;12.10;63.40
32147;DHT22;32190;49.112;8.598;2024-02-04T01:44:12;12.10;63.30
32147;DHT22;32190;49.112;8.598;2024-02-04T01:50:04;12.10;63.30
32147;DHT22;32190;49.112;8.598;2024-02-04T01:55:58;12.10;63.20
32147;DHT22;32190;49.112;8.598;2024-02-04T02:01:49;12.10;63.20
32147;DHT22;32190;49.112;8.598;2024-02-04T02:07:40;12.20;63.20
32147;DHT22;32190;49.112;8.598;2024-02-04T02:13:32;12.10;63.10
32147;DHT22;32190;49.112;8.598;2024-02-04T02:19:41;12.20;63.20
32147;DHT22;32190;49.112;8.598;2024-02-04T02:25:36;12.10;63.00
32147;DHT22;32190;49.112;8.598;2024-02-04T02:31:28;12.10;63.00
32147;DHT22;32190;49.112;8.598;2024-02-04T02:37:26;12.10;63.00
32147;DHT22;32190;49.112;8.598;2024-02-04T02:43:18;12.10;62.90
32147;DHT22;32190;49.112;8.598;2024-02-04T02:49:09;12.10;62.90
32147;DHT22;32190;49.112;8.598;2024-02-04T02:54:59;12.10;62.90
32147;DHT22;32190;49.112;8.598;2024-02-04T03:00:50;12.10;62.90
32147;DHT22;32190;49.112;8.598;2024-02-04T03:06:41;12.10;62.90
32147;DHT22;32190;49.112;8.598;2024-02-04T03:12:31;12.00;62.90
32147;DHT22;32190;49.112;8.598;2024-02-04T03:18:22;12.00;62.90
32147;DHT22;32190;49.112;8.598;2024-02-04T03:24:12;12.00;62.90
32147;DHT22;32190;49.112;8.598;2024-02-04T03:30:03;12.00;62.80
32147;DHT22;32190;49.112;8.598;2024-02-04T03:35:54;12.00;62.90
32147;DHT22;32190;49.112;8.598;2024-02-04T03:41:45;12.00;62.80
32147;DHT22;32190;49.112;8.598;2024-02-04T03:47:35;12.00;62.80
32147;DHT22;32190;49.112;8.598;2024-02-04T03:53:26;12.00;62.80
32147;DHT22;32190;49.112;8.598;2024-02-04T03:59:17;12.00;62.80
32147;DHT22;32190;49.112;8.598;2024-02-04T04:05:11;12.00;62.70
32147;DHT22;32190;49.112;8.598;2024-02-04T04:11:02;12.00;62.80
32147;DHT22;32190;49.112;8.598;2024-02-04T04:16:53;12.00;62.80
32147;DHT22;32190;49.112;8.598;2024-02-04T04:22:45;12.00;62.80
32147;DHT22;32190;49.112;8.598;2024-02-04T04:28:36;12.00;62.70
32147;DHT22;32190;49.112;8.598;2024-02-04T04:34:27;12.00;62.60
32147;DHT22;32190;49.112;8.598;2024-02-04T04:40:17;11.90;62.60
32147;DHT22;32190;49.112;8.598;2024-02-04T04:46:08;11.90;62.60
32147;DHT22;32190;49.112;8.598;2024-02-04T04:51:59;11.90;62.60
32147;DHT22;32190;49.112;8.598;2024-02-04T04:57:49;11.90;62.40
32147;DHT22;32190;49.112;8.598;2024-02-04T05:03:42;11.90;62.60
32147;DHT22;32190;49.112;8.598;2024-02-04T05:09:38;11.90;62.60
32147;DHT22;32190;49.112;8.598;2024-02-04T05:15:31;11.90;62.50
32147;DHT22;32190;49.112;8.598;2024-02-04T05:21:24;11.90;62.40
32147;DHT22;32190;49.112;8.598;2024-02-04T05:27:15;11.80;62.40
32147;DHT22;32190;49.112;8.598;2024-02-04T05:33:05;11.80;62.40
32147;DHT22;32190;49.112;8.598;2024-02-04T05:38:56;11.80;62.60
32147;DHT22;32190;49.112;8.598;2024-02-04T05:56:38;11.80;62.60
32147;DHT22;32190;49.112;8.598;2024-02-04T06:02:29;11.80;62.60
32147;DHT22;32190;49.112;8.598;2024-02-04T06:08:20;11.80;62.60
32147;DHT22;32190;49.112;8.598;2024-02-04T06:14:11;11.80;62.60
32147;DHT22;32190;49.112;8.598;2024-02-04T06:20:04;11.80;62.60
32147;DHT22;32190;49.112;8.598;2024-02-04T06:25:55;11.80;62.60
32147;DHT22;32190;49.112;8.598;2024-02-04T06:31:46;11.80;62.70
32147;DHT22;32190;49.112;8.598;2024-02-04T06:37:37;11.80;62.60
32147;DHT22;32190;49.112;8.598;2024-02-04T06:43:28;11.70;62.60
32147;DHT22;32190;49.112;8.598;2024-02-04T06:49:18;11.70;62.60
32147;DHT22;32190;49.112;8.598;2024-02-04T06:55:09;11.70;62.70
32147;DHT22;32190;49.112;8.598;2024-02-04T07:01:00;11.70;62.60
32147;DHT22;32190;49.112;8.598;2024-02-04T07:07:04;11.70;62.70
32147;DHT22;32190;49.112;8.598;2024-02-04T07:19:14;11.70;62.60
32147;DHT22;32190;49.112;8.598;2024-02-04T07:25:05;11.70;62.70
32147;DHT22;32190;49.112;8.598;2024-02-04T07:30:56;11.70;62.70
32147;DHT22;32190;49.112;8.598;2024-02-04T07:36:46;11.80;62.80
32147;DHT22;32190;49.112;8.598;2024-02-04T07:42:37;11.80;62.80
32147;DHT22;32190;49.112;8.598;2024-02-04T07:48:27;11.80;62.80
32147;DHT22;32190;49.112;8.598;2024-02-04T07:54:18;11.80;62.80
32147;DHT22;32190;49.112;8.598;2024-02-04T08:00:14;11.80;62.80
32147;DHT22;32190;49.112;8.598;2024-02-04T08:06:05;11.80;62.80
32147;DHT22;32190;49.112;8.598;2024-02-04T08:11:58;11.80;62.80
32147;DHT22;32190;49.112;8.598;2024-02-04T08:17:48;11.90;62.80
32147;DHT22;32190;49.112;8.598;2024-02-04T08:23:40;11.80;62.80
32147;DHT22;32190;49.112;8.598;2024-02-04T08:29:30;11.90;62.70
32147;DHT22;32190;49.112;8.598;2024-02-04T08:35:21;11.80;62.60
32147;DHT22;32190;49.112;8.598;2024-02-04T08:41:11;11.80;62.60
32147;DHT22;32190;49.112;8.598;2024-02-04T08:47:02;11.90;62.70
32147;DHT22;32190;49.112;8.598;2024-02-04T08:52:53;11.90;62.70
32147;DHT22;32190;49.112;8.598;2024-02-04T09:43:06;12.00;62.50
32147;DHT22;32190;49.112;8.598;2024-02-04T09:48:58;12.00;62.60
32147;DHT22;32190;49.112;8.598;2024-02-04T09:54:50;12.00;62.60
32147;DHT22;32190;49.112;8.598;2024-02-04T10:00:47;12.10;62.60
32147;DHT22;32190;49.112;8.598;2024-02-04T10:13:46;12.10;62.50
32147;DHT22;32190;49.112;8.598;2024-02-04T10:26:20;12.10;62.40
32147;DHT22;32190;49.112;8.598;2024-02-04T10:32:59;12.10;62.40
32147;DHT22;32190;49.112;8.598;2024-02-04T10:39:08;12.10;62.40
32147;DHT22;32190;49.112;8.598;2024-02-04T10:44:59;12.20;62.50
32147;DHT22;32190;49.112;8.598;2024-02-04T10:50:51;12.20;62.40
32147;DHT22;32190;49.112;8.598;2024-02-04T10:57:03;12.30;62.40
32147;DHT22;32190;49.112;8.598;2024-02-04T11:02:54;12.30;62.30
32147;DHT22;32190;49.112;8.598;2024-02-04T11:09:08;12.40;62.50
32147;DHT22;32190;49.112;8.598;2024-02-04T11:15:07;12.40;62.50
32147;DHT22;32190;49.112;8.598;2024-02-04T11:21:36;12.40;62.30
32147;DHT22;32190;49.112;8.598;2024-02-04T11:27:31;12.50;62.20
32147;DHT22;32190;49.112;8.598;2024-02-04T11:33:22;12.50;62.30
32147;DHT22;32190;49.112;8.598;2024-02-04T11:39:20;12.50;62.20
32147;DHT22;32190;49.112;8.598;2024-02-04T11:45:13;12.50;62.30
32147;DHT22;32190;49.112;8.598;2024-02-04T11:51:05;12.50;62.30
32147;DHT22;32190;49.112;8.598;2024-02-04T11:56:56;12.60;62.40
32147;DHT22;32190;49.112;8.598;2024-02-04T12:02:47;12.60;62.50
32147;DHT22;32190;49.112;8.598;2024-02-04T12:08:41;12.60;62.40
32147;DHT22;32190;49.112;8.598;2024-02-04T12:14:38;12.70;62.40
32147;DHT22;32190;49.112;8.598;2024-02-04T12:20:30;12.70;62.40
32147;DHT22;32190;49.112;8.598;2024-02-04T12:26:24;12.70;62.40
32147;DHT22;32190;49.112;8.598;2024-02-04T12:32:20;12.60;62.30
32147;DHT22;32190;49.112;8.598;2024-02-04T12:38:16;12.70;62.60
32147;DHT22;32190;49.112;8.598;2024-02-04T12:44:09;12.70;62.40
32147;DHT22;32190;49.112;8.598;2024-02-04T12:50:08;12.80;62.50
32147;DHT22;32190;49.112;8.598;2024-02-04T12:56:07;12.80;62.30
32147;DHT22;32190;49.112;8.598;2024-02-04T13:02:08;12.80;62.40
32147;DHT22;32190;49.112;8.598;2024-02-04T13:08:06;12.80;62.40
32147;DHT22;32190;49.112;8.598;2024-02-04T13:14:02;12.80;62.30
32147;DHT22;32190;49.112;8.598;2024-02-04T13:19:56;12.80;62.30
32147;DHT22;32190;49.112;8.598;2024-02-04T13:25:55;12.80;62.40
32147;DHT22;32190;49.112;8.598;2024-02-04T13:32:00;12.80;62.40
32147;DHT22;32190;49.112;8.598;2024-02-04T13:38:07;12.80;62.40
32147;DHT22;32190;49.112;8.598;2024-02-04T13:44:05;12.90;62.50
32147;DHT22;32190;49.112;8.598;2024-02-04T13:50:00;12.90;62.60
32147;DHT22;32190;49.112;8.598;2024-02-04T13:55:51;12.90;62.50
32147;DHT22;32190;49.112;8.598;2024-02-04T14:01:53;12.90;62.60
32147;DHT22;32190;49.112;8.598;2024-02-04T14:07:57;12.90;62.70
32147;DHT22;32190;49.112;8.598;2024-02-04T14:13:48;12.90;62.70
32147;DHT22;32190;49.112;8.598;2024-02-04T14:19:41;13.00;62.70
32147;DHT22;32190;49.112;8.598;2024-02-04T14:25:44;13.00;62.60
32147;DHT22;32190;49.112;8.598;2024-02-04T14:31:55;13.00;62.70
32147;DHT22;32190;49.112;8.598;2024-02-04T14:37:46;13.00;62.80
32147;DHT22;32190;49.112;8.598;2024-02-04T14:43:50;12.90;62.70
32147;DHT22;32190;49.112;8.598;2024-02-04T14:49:44;12.90;62.80
32147;DHT22;32190;49.112;8.598;2024-02-04T14:55:35;12.90;62.80
32147;DHT22;32190;49.112;8.598;2024-02-04T15:01:28;12.90;62.90
32147;DHT22;32190;49.112;8.598;2024-02-04T15:07:19;12.80;62.90
32147;DHT22;32190;49.112;8.598;2024-02-04T15:13:10;12.90;63.00
32147;DHT22;32190;49.112;8.598;2024-02-04T15:19:04;12.80;62.90
32147;DHT22;32190;49.112;8.598;2024-02-04T15:25:06;12.80;63.00
32147;DHT22;32190;49.112;8.598;2024-02-04T15:31:25;12.80;63.10
32147;DHT22;32190;49.112;8.598;2024-02-04T15:45:05;12.80;63.10
32147;DHT22;32190;49.112;8.598;2024-02-04T15:51:41;12.80;63.20
32147;DHT22;32190;49.112;8.598;2024-02-04T15:57:34;12.80;63.10
32147;DHT22;32190;49.112;8.598;2024-02-04T16:03:30;12.80;63.20
32147;DHT22;32190;49.112;8.598;2024-02-04T16:09:22;12.80;63.30
32147;DHT22;32190;49.112;8.598;2024-02-04T16:15:15;12.80;63.30
32147;DHT22;32190;49.112;8.598;2024-02-04T16:21:08;12.70;63.40
32147;DHT22;32190;49.112;8.598;2024-02-04T16:27:03;12.80;63.40
32147;DHT22;32190;49.112;8.598;2024-02-04T16:32:54;12.70;63.40
32147;DHT22;32190;49.112;8.598;2024-02-04T16:38:53;12.80;63.50
32147;DHT22;32190;49.112;8.598;2024-02-04T16:51:42;12.70;63.40
32147;DHT22;32190;49.112;8.598;2024-02-04T16:57:33;12.80;63.40
32147;DHT22;32190;49.112;8.598;2024-02-04T17:03:24;12.80;63.30
32147;DHT22;32190;49.112;8.598;2024-02-04T17:09:17;12.80;63.30
32147;DHT22;32190;49.112;8.598;2024-02-04T17:15:10;12.80;63.30
32147;DHT22;32190;49.112;8.598;2024-02-04T17:21:03;12.80;63.20
32147;DHT22;32190;49.112;8.598;2024-02-04T17:27:00;12.80;63.30
32147;DHT22;32190;49.112;8.598;2024-02-04T17:32:54;12.80;63.30
32147;DHT22;32190;49.112;8.598;2024-02-04T17:38:45;12.80;63.30
32147;DHT22;32190;49.112;8.598;2024-02-04T17:44:36;12.80;63.30
32147;DHT22;32190;49.112;8.598;2024-02-04T17:50:28;12.80;63.20
32147;DHT22;32190;49.112;8.598;2024-02-04T17:56:18;12.80;63.20
32147;DHT22;32190;49.112;8.598;2024-02-04T18:02:09;12.80;63.30
32147;DHT22;32190;49.112;8.598;2024-02-04T18:07:59;12.80;63.30
32147;DHT22;32190;49.112;8.598;2024-02-04T18:13:51;12.80;63.20
32147;DHT22;32190;49.112;8.598;2024-02-04T18:19:43;12.80;63.20
32147;DHT22;32190;49.112;8.598;2024-02-04T18:25:34;12.80;63.20
32147;DHT22;32190;49.112;8.598;2024-02-04T18:31:28;12.80;63.20
32147;DHT22;32190;49.112;8.598;2024-02-04T18:37:19;12.80;63.20
32147;DHT22;32190;49.112;8.598;2024-02-04T18:43:10;12.80;63.20
32147;DHT22;32190;49.112;8.598;2024-02-04T18:49:01;12.80;63.20
32147;DHT22;32190;49.112;8.598;2024-02-04T18:54:53;12.80;63.20
32147;DHT22;32190;49.112;8.598;2024-02-04T19:00:43;12.80;63.20
32147;DHT22;32190;49.112;8.598;2024-02-04T19:06:34;12.70;63.10
32147;DHT22;32190;49.112;8.598;2024-02-04T19:12:25;12.70;63.10
32147;DHT22;32190;49.112;8.598;2024-02-04T19:18:16;12.70;63.10
32147;DHT22;32190;49.112;8.598;2024-02-04T19:24:10;12.70;63.10
32147;DHT22;32190;49.112;8.598;2024-02-04T19:30:01;12.70;63.10
32147;DHT22;32190;49.112;8.598;2024-02-04T19:35:52;12.70;63.10
32147;DHT22;32190;49.112;8.598;2024-02-04T19:41:43;12.70;63.00
32147;DHT22;32190;49.112;8.598;2024-02-04T19:47:34;12.70;63.00
32147;DHT22;32190;49.112;8.598;2024-02-04T19:53:24;12.70;62.90
32147;DHT22;32190;49.112;8.598;2024-02-04T19:59:15;12.70;62.90
32147;DHT22;32190;49.112;8.598;2024-02-04T20:05:06;12.80;63.00
32147;DHT22;32190;49.112;8.598;2024-02-04T20:10:57;12.70;62.90
32147;DHT22;32190;49.112;8.598;2024-02-04T20:16:51;12.70;62.80
32147;DHT22;32190;49.112;8.598;2024-02-04T20:22:42;12.70;62.80
32147;DHT22;32190;49.112;8.598;2024-02-04T20:28:32;12.70;62.80
32147;DHT22;32190;49.112;8.598;2024-02-04T20:34:23;12.70;62.80
32147;DHT22;32190;49.112;8.598;2024-02-04T20:40:14;12.60;62.70
32147;DHT22;32190;49.112;8.598;2024-02-04T20:46:05;12.60;62.60
32147;DHT22;32190;49.112;8.598;2024-02-04T20:51:57;12.60;62.60
32147;DHT22;32190;49.112;8.598;2024-02-04T20:57:50;12.60;62.60
32147;DHT22;32190;49.112;8.598;2024-02-04T21:03:41;12.50;62.70
32147;DHT22;32190;49.112;8.598;2024-02-04T21:09:32;12.50;62.70
32147;DHT22;32190;49.112;8.598;2024-02-04T21:15:24;12.50;62.70
32147;DHT22;32190;49.112;8.598;2024-02-04T21:21:15;12.40;62.70
32147;DHT22;32190;49.112;8.598;2024-02-04T21:27:08;12.40;62.70
32147;DHT22;32190;49.112;8.598;2024-02-04T21:32:59;12.40;62.70
32147;DHT22;32190;49.112;8.598;2024-02-04T21:38:52;12.40;62.80
32147;DHT22;32190;49.112;8.598;2024-02-04T21:44:43;12.40;62.80
32147;DHT22;32190;49.112;8.598;2024-02-04T21:50:34;12.40;62.80
32147;DHT22;32190;49.112;8.598;2024-02-04T21:56:26;12.30;62.80
32147;DHT22;32190;49.112;8.598;2024-02-04T22:02:17;12.30;62.80
32147;DHT22;32190;49.112;8.598;2024-02-04T22:08:08;12.40;62.90
32147;DHT22;32190;49.112;8.598;2024-02-04T22:13:58;12.30;62.80
32147;DHT22;32190;49.112;8.598;2024-02-04T22:19:59;12.30;62.70
32147;DHT22;32190;49.112;8.598;2024-02-04T22:26:02;12.30;62.70
32147;DHT22;32190;49.112;8.598;2024-02-04T22:31:55;12.30;62.80
32147;DHT22;32190;49.112;8.598;2024-02-04T22:37:46;12.30;62.80
32147;DHT22;32190;49.112;8.598;2024-02-04T22:43:37;12.30;62.80
32147;DHT22;32190;49.112;8.598;2024-02-04T22:49:28;12.30;62.70
32147;DHT22;32190;49.112;8.598;2024-02-04T22:55:30;12.30;62.70
32147;DHT22;32190;49.112;8.598;2024-02-04T23:01:31;12.20;62.60
32147;DHT22;32190;49.112;8.598;2024-02-04T23:07:22;12.20;62.70
32147;DHT22;32190;49.112;8.598;2024-02-04T23:13:19;12.20;62.70
32147;DHT22;32190;49.112;8.598;2024-02-04T23:19:12;12.20;62.80
32147;DHT22;32190;49.112;8.598;2024-02-04T23:25:09;12.20;62.80
32147;DHT22;32190;49.112;8.598;2024-02-04T23:31:03;12.20;62.90
32147;DHT22;32190;49.112;8.598;2024-02-04T23:36:54;12.20;62.90
32147;DHT22;32190;49.112;8.598;2024-02-04T23:42:45;12.20;62.90
32147;DHT22;32190;49.112;8.598;2024-02-04T23:48:35;12.10;62.90
32147;DHT22;32190;49.112;8.598;2024-02-04T23:54:29;12.10;63.00
